Time;durP1;ratioP1;P1;durP2;ratioP2;P2;SDS_P1;SDS_P2;PMS_P1;PMS_P2;Temp;Humidity;BMP_temperature;BMP_pressure;BME280_temperature;BME280_humidity;BME280_pressure;Samples;Min_cycle;Max_cycle;Signal;HPM_P1;HPM_P2
2021/12/10 00:04:01;;;;;;;28.25;13.07;;;;;;;2.27;100.00;99642.38;10542610;28;20078;-84
2021/12/10 00:09:14;;;;;;;20.30;14.45;;;;;;;2.24;100.00;99636.53;10542402;28;20086;-83
2021/12/10 00:14:15;;;;;;;17.85;12.05;;;;;;;2.29;100.00;99621.63;10544268;28;20056;-84
2021/12/10 00:24:25;;;;;;;22.58;11.07;;;;;;;2.23;100.00;99610.81;10542646;28;20032;-83
2021/12/10 00:29:25;;;;;;;11.95;8.75;;;;;;;2.33;100.00;99595.44;10542388;28;20044;-84
2021/12/10 00:34:27;;;;;;;21.02;10.23;;;;;;;2.41;100.00;99573.16;10542334;28;20471;-83
2021/12/10 00:39:32;;;;;;;27.67;14.18;;;;;;;2.36;100.00;99583.53;10543114;28;20035;-84
2021/12/10 00:44:32;;;;;;;26.73;14.38;;;;;;;2.38;100.00;99557.50;10543439;28;20035;-84
2021/12/10 00:49:33;;;;;;;24.83;15.75;;;;;;;2.36;100.00;99538.94;10542950;28;20379;-84
2021/12/10 00:54:34;;;;;;;21.70;13.27;;;;;;;2.35;100.00;99528.47;10553112;28;20047;-84
2021/12/10 00:59:34;;;;;;;14.55;12.27;;;;;;;2.35;100.00;99510.59;10552514;28;20043;-83
2021/12/10 01:04:36;;;;;;;20.65;10.30;;;;;;;2.33;100.00;99515.28;10541365;28;20035;-84
2021/12/10 01:09:38;;;;;;;21.45;12.18;;;;;;;2.33;100.00;99504.59;10565531;28;20423;-84
2021/12/10 01:30:30;;;;;;;16.65;11.95;;;;;;;2.23;100.00;99461.25;10547883;28;20036;-83
2021/12/10 01:35:35;;;;;;;14.50;9.20;;;;;;;2.23;100.00;99454.06;10547961;28;20044;-84
2021/12/10 01:40:36;;;;;;;17.58;10.32;;;;;;;2.19;100.00;99438.59;10546927;28;20032;-82
2021/12/10 01:45:45;;;;;;;15.18;9.88;;;;;;;2.20;100.00;99448.25;10563600;28;20132;-83
2021/12/10 01:50:46;;;;;;;14.20;11.30;;;;;;;2.20;100.00;99433.09;10548436;28;20024;-83
2021/12/10 01:55:48;;;;;;;11.52;10.25;;;;;;;2.23;100.00;99419.34;10546597;28;20421;-83
2021/12/10 02:00:59;;;;;;;9.73;8.13;;;;;;;2.20;100.00;99416.22;10546946;28;20432;-82
2021/12/10 02:06:00;;;;;;;15.68;10.30;;;;;;;2.20;100.00;99395.69;10563844;28;20048;-83
2021/12/10 02:11:00;;;;;;;18.88;12.15;;;;;;;2.25;100.00;99382.63;10529981;28;20028;-83
2021/12/10 02:16:01;;;;;;;19.67;8.70;;;;;;;2.25;100.00;99374.59;10545511;28;20505;-83
2021/12/10 02:21:01;;;;;;;37.53;9.20;;;;;;;2.33;100.00;99379.06;10545913;28;20076;-83
2021/12/10 02:26:06;;;;;;;18.92;8.43;;;;;;;2.43;100.00;99374.28;10545691;28;20024;-82
2021/12/10 02:31:08;;;;;;;14.60;7.63;;;;;;;2.59;100.00;99351.91;10547786;28;20072;-82
2021/12/10 02:36:11;;;;;;;10.15;8.07;;;;;;;2.62;100.00;99335.50;10546006;28;20028;-82
2021/12/10 02:41:12;;;;;;;9.38;5.72;;;;;;;2.71;100.00;99317.50;10545460;28;20399;-83
2021/12/10 02:46:13;;;;;;;14.80;7.97;;;;;;;2.74;100.00;99312.63;10546071;28;20028;-82
2021/12/10 02:51:14;;;;;;;9.57;5.80;;;;;;;2.80;100.00;99306.53;10544962;28;20042;-84
2021/12/10 02:56:17;;;;;;;19.13;7.18;;;;;;;2.77;100.00;99290.03;10546296;28;20373;-82
2021/12/10 03:01:28;;;;;;;10.35;5.43;;;;;;;2.80;100.00;99287.81;10546091;28;20043;-83
2021/12/10 03:06:29;;;;;;;19.67;6.40;;;;;;;2.88;100.00;99276.19;10545571;28;20484;-83
2021/12/10 03:11:32;;;;;;;13.57;6.18;;;;;;;2.95;100.00;99265.59;10551741;28;20059;-83
2021/12/10 03:16:33;;;;;;;5.07;4.65;;;;;;;3.02;100.00;99256.59;10556830;28;20032;-83
2021/12/10 03:21:33;;;;;;;11.65;5.15;;;;;;;3.12;100.00;99247.44;10546302;28;20032;-82
2021/12/10 03:26:34;;;;;;;4.35;4.05;;;;;;;2.99;100.00;99235.59;10526748;28;20052;-82
2021/12/10 03:31:34;;;;;;;7.38;4.18;;;;;;;2.85;100.00;99244.50;10544768;28;20081;-84
2021/12/10 03:36:35;;;;;;;10.93;5.13;;;;;;;2.78;100.00;99239.06;10543886;28;20067;-84
2021/12/10 03:41:35;;;;;;;5.10;4.05;;;;;;;2.76;100.00;99234.94;10546728;28;20396;-86
2021/12/10 03:46:36;;;;;;;14.80;7.45;;;;;;;2.82;100.00;99209.28;10545535;28;20500;-87
2021/12/10 03:51:36;;;;;;;22.15;7.40;;;;;;;2.80;100.00;99204.94;10546418;28;20119;-87
2021/12/10 03:56:37;;;;;;;4.88;4.47;;;;;;;2.80;100.00;99204.13;10546699;28;20035;-87
2021/12/10 04:01:43;;;;;;;16.27;7.03;;;;;;;2.83;100.00;99185.03;10543045;28;20032;-87
2021/12/10 04:06:44;;;;;;;11.90;6.78;;;;;;;2.86;100.00;99181.97;10543732;28;20424;-87
2021/12/10 04:11:44;;;;;;;6.28;5.70;;;;;;;2.90;100.00;99172.56;10544778;28;20130;-86
2021/12/10 04:16:45;;;;;;;5.47;4.38;;;;;;;2.86;100.00;99149.06;10544832;28;20036;-85
2021/12/10 04:21:45;;;;;;;12.55;4.18;;;;;;;2.84;100.00;99157.31;10546418;28;20036;-87
2021/12/10 04:26:46;;;;;;;10.50;5.28;;;;;;;2.84;100.00;99146.59;10530351;28;20127;-86
2021/12/10 04:31:48;;;;;;;4.57;3.40;;;;;;;2.83;100.00;99136.91;10547569;28;20071;-86
2021/12/10 04:36:49;;;;;;;10.73;4.25;;;;;;;2.83;100.00;99118.19;10546337;28;20063;-86
2021/12/10 04:41:50;;;;;;;15.20;5.55;;;;;;;2.85;100.00;99123.38;10546273;28;20120;-86
2021/12/10 04:46:50;;;;;;;6.15;4.25;;;;;;;2.89;100.00;99122.78;10549116;28;20056;-87
2021/12/10 04:51:52;;;;;;;8.07;3.85;;;;;;;2.91;100.00;99114.59;10548662;28;20043;-87
2021/12/10 04:56:55;;;;;;;3.25;2.95;;;;;;;2.90;100.00;99097.69;10545175;28;20036;-86
2021/12/10 05:01:56;;;;;;;3.53;3.25;;;;;;;2.91;100.00;99088.69;10549543;28;20040;-87
2021/12/10 05:06:58;;;;;;;5.43;4.82;;;;;;;2.93;100.00;99091.97;10550890;28;20615;-88
2021/12/10 05:12:00;;;;;;;4.40;2.30;;;;;;;2.95;100.00;99083.78;10554706;28;20437;-87
2021/12/10 05:17:05;;;;;;;13.43;3.20;;;;;;;2.96;100.00;99067.53;10547410;28;20036;-86
2021/12/10 05:22:07;;;;;;;11.48;3.35;;;;;;;2.99;100.00;99085.84;10545928;28;20083;-85
2021/12/10 05:27:07;;;;;;;9.35;3.15;;;;;;;3.03;100.00;99079.13;10496840;28;20048;-84
2021/12/10 05:32:08;;;;;;;14.88;3.60;;;;;;;3.06;100.00;99064.50;10564658;28;20046;-87
2021/12/10 05:37:09;;;;;;;10.20;4.60;;;;;;;3.02;100.00;99074.78;10575656;28;20036;-88
2021/12/10 05:42:09;;;;;;;9.38;4.40;;;;;;;3.07;100.00;99062.69;10544092;28;20433;-86
2021/12/10 05:47:10;;;;;;;13.02;4.00;;;;;;;3.07;100.00;99070.72;10522856;28;20036;-84
2021/12/10 05:52:11;;;;;;;3.67;3.38;;;;;;;3.05;100.00;99070.06;10543812;28;20029;-82
2021/12/10 05:57:12;;;;;;;10.15;3.20;;;;;;;3.07;100.00;99063.50;10546768;28;20360;-85
2021/12/10 06:02:12;;;;;;;6.82;3.25;;;;;;;3.10;100.00;99078.34;10548287;28;20047;-83
2021/12/10 06:07:13;;;;;;;11.57;5.13;;;;;;;3.06;100.00;99064.50;10545775;28;20048;-82
2021/12/10 06:12:13;;;;;;;5.32;3.10;;;;;;;3.06;100.00;99071.72;10547137;28;20040;-80
2021/12/10 06:17:14;;;;;;;13.30;4.18;;;;;;;2.93;100.00;99070.56;10529629;28;20230;-80
2021/12/10 06:22:15;;;;;;;13.15;4.70;;;;;;;2.91;100.00;99067.28;10559379;28;20475;-80
2021/12/10 06:27:15;;;;;;;20.13;3.80;;;;;;;2.90;100.00;99070.13;10545053;28;20032;-79
2021/12/10 06:32:16;;;;;;;5.03;4.22;;;;;;;2.86;100.00;99067.03;10545222;28;20494;-79
2021/12/10 06:37:16;;;;;;;8.43;4.28;;;;;;;2.92;100.00;99076.13;10545612;28;20063;-79
2021/12/10 06:42:17;;;;;;;4.60;3.47;;;;;;;2.93;100.00;99070.56;10545564;28;20040;-80
2021/12/10 06:47:17;;;;;;;7.65;2.55;;;;;;;2.89;100.00;99084.53;10545460;28;20036;-81
2021/12/10 06:52:17;;;;;;;6.72;3.95;;;;;;;2.88;100.00;99078.38;10545681;28;20119;-81
2021/12/10 06:57:18;;;;;;;6.80;3.92;;;;;;;2.89;100.00;99082.69;10545049;28;20036;-81
2021/12/10 07:02:18;;;;;;;21.63;4.70;;;;;;;2.89;100.00;99093.38;10542598;28;20111;-82
2021/12/10 07:07:19;;;;;;;6.65;3.50;;;;;;;2.84;100.00;99094.97;10543172;28;20052;-82
2021/12/10 07:12:19;;;;;;;11.07;4.78;;;;;;;2.86;100.00;99083.06;10543427;28;20043;-81
2021/12/10 07:17:20;;;;;;;5.07;3.17;;;;;;;2.90;100.00;99091.53;10544380;28;20060;-82
2021/12/10 07:22:20;;;;;;;22.33;6.32;;;;;;;2.87;100.00;99092.75;10544080;28;20494;-81
2021/12/10 07:27:21;;;;;;;6.10;3.25;;;;;;;2.82;100.00;99097.84;10544050;28;20105;-82
2021/12/10 07:32:21;;;;;;;6.72;5.32;;;;;;;2.84;100.00;99113.69;10542896;28;20036;-82
2021/12/10 07:37:23;;;;;;;12.23;4.35;;;;;;;2.83;100.00;99110.19;10545831;28;20040;-79
2021/12/10 07:42:23;;;;;;;6.97;5.10;;;;;;;2.82;100.00;99105.88;10566191;28;20035;-82
2021/12/10 07:47:24;;;;;;;9.50;6.38;;;;;;;2.82;100.00;99113.06;10563656;28;20029;-80
2021/12/10 07:52:27;;;;;;;11.43;4.43;;;;;;;2.76;100.00;99106.63;10571663;28;20036;-82
2021/12/10 07:57:29;;;;;;;15.40;5.55;;;;;;;2.72;100.00;99111.53;10546069;28;20391;-82
2021/12/10 08:02:29;;;;;;;9.45;7.72;;;;;;;2.78;100.00;99112.63;10544006;28;20455;-82
2021/12/10 08:07:29;;;;;;;14.13;8.40;;;;;;;2.82;100.00;99110.38;10544239;28;20071;-82
2021/12/10 08:12:30;;;;;;;10.07;6.20;;;;;;;2.78;100.00;99128.66;10542485;28;20043;-82
2021/12/10 08:17:30;;;;;;;11.07;7.63;;;;;;;2.81;100.00;99120.25;10542680;28;20036;-83
2021/12/10 08:22:31;;;;;;;23.85;8.77;;;;;;;2.75;100.00;99134.38;10541871;28;20111;-83
2021/12/10 08:27:32;;;;;;;14.98;9.05;;;;;;;2.76;100.00;99126.16;10541934;28;20059;-82
2021/12/10 08:32:32;;;;;;;14.13;8.13;;;;;;;2.82;100.00;99135.28;10540968;28;20043;-81
2021/12/10 08:37:33;;;;;;;8.77;7.88;;;;;;;2.87;100.00;99140.88;10541052;28;20063;-82
2021/12/10 08:42:33;;;;;;;23.35;10.50;;;;;;;2.87;100.00;99135.53;10540925;28;20125;-80
2021/12/10 08:47:34;;;;;;;20.30;9.20;;;;;;;2.89;100.00;99144.19;10539998;28;20126;-80
2021/12/10 08:52:34;;;;;;;12.93;8.43;;;;;;;2.94;100.00;99146.28;10539297;28;20047;-81
2021/12/10 08:57:34;;;;;;;19.42;10.73;;;;;;;2.99;100.00;99150.03;10540691;28;20089;-81
2021/12/10 09:02:37;;;;;;;11.57;9.05;;;;;;;2.96;100.00;99155.75;10556634;28;20202;-82
2021/12/10 09:07:38;;;;;;;14.73;8.50;;;;;;;2.90;100.00;99164.53;10542352;28;20056;-81
2021/12/10 09:12:39;;;;;;;9.98;7.65;;;;;;;3.00;100.00;99173.09;10541729;28;20040;-82
2021/12/10 09:17:40;;;;;;;14.63;10.43;;;;;;;3.02;100.00;99163.00;10540278;28;20036;-82
2021/12/10 09:22:41;;;;;;;10.63;7.07;;;;;;;3.08;100.00;99184.66;10541257;28;20463;-81
2021/12/10 09:27:41;;;;;;;9.57;6.43;;;;;;;3.10;100.00;99186.13;10544213;28;20039;-81
2021/12/10 09:32:42;;;;;;;11.38;7.38;;;;;;;3.10;100.00;99196.84;10549798;28;20032;-80
2021/12/10 09:37:42;;;;;;;13.73;6.68;;;;;;;3.02;100.00;99205.78;10530982;28;20055;-81
2021/12/10 09:42:43;;;;;;;15.57;7.65;;;;;;;2.97;100.00;99210.09;10530281;28;20047;-80
2021/12/10 09:47:43;;;;;;;7.50;6.72;;;;;;;2.92;100.00;99224.00;10550647;28;20089;-80
2021/12/10 09:52:44;;;;;;;10.85;8.48;;;;;;;3.01;100.00;99208.69;10549067;28;20032;-81
2021/12/10 09:57:45;;;;;;;14.23;9.52;;;;;;;3.05;100.00;99219.81;10550240;28;20028;-79
2021/12/10 10:02:45;;;;;;;9.10;6.90;;;;;;;3.01;100.00;99219.38;10551381;28;20112;-81
2021/12/10 10:07:52;;;;;;;9.52;7.28;;;;;;;2.98;100.00;99223.25;10538448;28;20051;-80
2021/12/10 10:12:53;;;;;;;7.38;6.18;;;;;;;3.02;100.00;99221.84;10556020;28;20032;-80
2021/12/10 10:17:54;;;;;;;16.77;6.72;;;;;;;3.01;100.00;99222.88;10545601;28;20067;-81
2021/12/10 10:22:55;;;;;;;14.98;8.00;;;;;;;2.99;100.00;99243.59;10545436;28;20036;-80
2021/12/10 10:27:55;;;;;;;18.10;7.75;;;;;;;2.99;100.00;99230.25;10545670;28;20028;-81
2021/12/10 10:32:58;;;;;;;15.75;7.63;;;;;;;3.03;100.00;99231.53;10544168;28;20455;-81
2021/12/10 10:37:58;;;;;;;14.02;7.30;;;;;;;3.09;100.00;99235.28;10544153;28;20039;-81
2021/12/10 10:42:59;;;;;;;14.40;8.13;;;;;;;3.01;100.00;99230.88;10543988;28;20126;-81
2021/12/10 10:48:00;;;;;;;7.22;4.65;;;;;;;3.01;100.00;99228.22;10544667;28;20123;-80
2021/12/10 10:53:08;;;;;;;10.35;7.13;;;;;;;2.93;100.00;99247.03;10545935;28;20111;-81
2021/12/10 10:58:13;;;;;;;16.33;7.07;;;;;;;2.99;100.00;99240.13;10545889;28;20043;-81
2021/12/10 11:03:22;;;;;;;10.38;6.65;;;;;;;3.12;100.00;99244.78;10526570;28;20032;-79
2021/12/10 11:08:34;;;;;;;7.60;6.15;;;;;;;3.18;100.00;99247.50;10545600;28;20063;-79
2021/12/10 11:13:34;;;;;;;6.43;5.47;;;;;;;3.21;100.00;99259.69;10545093;28;20043;-82
2021/12/10 11:18:58;;;;;;;6.07;5.47;;;;;;;3.29;100.00;99267.59;10544915;28;20040;-82
2021/12/10 11:24:34;;;;;;;7.35;5.15;;;;;;;3.25;100.00;99263.63;10545021;28;20040;-82
2021/12/10 11:29:55;;;;;;;13.20;6.07;;;;;;;3.22;100.00;99264.84;10543667;28;20047;-81
2021/12/10 11:34:57;;;;;;;12.98;7.00;;;;;;;3.19;100.00;99272.41;10541684;28;20472;-81
2021/12/10 11:39:57;;;;;;;5.72;4.32;;;;;;;3.18;100.00;99274.25;10543179;28;20043;-81
2021/12/10 11:50:27;;;;;;;16.10;6.88;;;;;;;3.10;100.00;99273.56;10525030;28;20066;-81
2021/12/10 11:55:28;;;;;;;8.27;6.95;;;;;;;3.23;100.00;99279.06;10545553;28;20048;-81
2021/12/10 12:00:32;;;;;;;8.38;6.72;;;;;;;3.34;100.00;99291.09;10543692;28;20371;-81
2021/12/10 12:05:40;;;;;;;12.98;6.90;;;;;;;3.39;100.00;99299.38;10540661;28;20032;-80
2021/12/10 12:10:42;;;;;;;11.07;7.43;;;;;;;3.46;100.00;99309.13;10543220;28;20532;-81
2021/12/10 12:15:44;;;;;;;7.30;6.60;;;;;;;3.40;100.00;99311.75;10543302;28;20525;-81
2021/12/10 12:20:49;;;;;;;10.48;7.32;;;;;;;3.47;100.00;99320.66;10544943;28;20028;-81
2021/12/10 12:25:51;;;;;;;14.25;7.18;;;;;;;3.59;100.00;99319.13;10550129;28;20058;-81
2021/12/10 12:30:59;;;;;;;18.20;7.88;;;;;;;3.73;100.00;99323.63;10531776;28;20032;-81
2021/12/10 12:36:00;;;;;;;16.23;7.65;;;;;;;3.72;100.00;99332.66;10539998;28;20045;-81
2021/12/10 12:41:18;;;;;;;9.75;8.45;;;;;;;3.89;100.00;99338.59;10538896;28;20023;-81
2021/12/10 12:46:18;;;;;;;10.18;7.88;;;;;;;4.01;100.00;99340.72;10540878;28;20036;-80
2021/12/10 12:51:20;;;;;;;17.52;9.32;;;;;;;4.08;100.00;99346.97;10540532;28;20119;-79
2021/12/10 12:56:22;;;;;;;17.77;7.82;;;;;;;4.02;100.00;99343.22;10540826;28;20085;-80
2021/12/10 13:01:44;;;;;;;23.70;7.57;;;;;;;3.98;100.00;99360.69;10538596;28;20028;-80
2021/12/10 13:06:54;;;;;;;15.65;7.28;;;;;;;4.03;100.00;99366.31;10539938;28;20051;-80
2021/12/10 13:17:11;;;;;;;17.77;8.68;;;;;;;4.15;100.00;99382.69;10542122;28;20031;-80
2021/12/10 13:22:15;;;;;;;14.60;8.98;;;;;;;4.17;100.00;99386.81;10540418;28;20085;-80
2021/12/10 13:27:17;;;;;;;17.13;9.63;;;;;;;4.19;100.00;99383.94;10542272;28;20032;-80
2021/12/10 13:32:18;;;;;;;12.70;10.20;;;;;;;4.19;100.00;99392.00;10540415;28;20071;-80
2021/12/10 13:37:18;;;;;;;16.20;8.98;;;;;;;4.18;100.00;99396.53;10538075;28;20490;-82
2021/12/10 13:42:19;;;;;;;12.32;9.70;;;;;;;4.14;100.00;99405.13;10540134;28;20111;-81
2021/12/10 13:47:30;;;;;;;17.20;10.10;;;;;;;4.10;100.00;99415.41;10522685;28;20048;-81
2021/12/10 13:52:51;;;;;;;17.38;10.05;;;;;;;4.08;100.00;99433.50;10538905;28;20134;-82
2021/12/10 13:58:10;;;;;;;10.23;9.05;;;;;;;4.01;100.00;99437.16;10540150;28;20102;-83
2021/12/10 14:03:11;;;;;;;10.82;8.85;;;;;;;4.02;100.00;99452.19;10539425;28;20039;-81
2021/12/10 14:08:16;;;;;;;10.38;9.27;;;;;;;4.02;100.00;99461.09;10538352;28;20060;-81
2021/12/10 14:13:34;;;;;;;28.42;10.02;;;;;;;4.00;100.00;99465.78;10543476;28;20043;-81
2021/12/10 14:18:45;;;;;;;16.35;11.18;;;;;;;4.05;100.00;99484.81;10563493;28;20598;-81
2021/12/10 14:23:53;;;;;;;14.60;8.35;;;;;;;4.06;100.00;99499.84;10528868;28;20123;-80
2021/12/10 14:29:01;;;;;;;15.90;10.15;;;;;;;4.06;100.00;99505.22;10546427;28;20027;-81
2021/12/10 14:34:31;;;;;;;16.05;10.25;;;;;;;4.05;100.00;99513.41;10548861;28;20036;-83
2021/12/10 14:39:32;;;;;;;18.30;9.30;;;;;;;4.08;100.00;99523.75;10548397;28;20098;-80
2021/12/10 14:44:33;;;;;;;17.63;10.27;;;;;;;3.93;100.00;99538.03;10566740;28;20035;-81
2021/12/10 14:49:35;;;;;;;11.18;8.63;;;;;;;3.75;100.00;99548.31;10535726;28;20375;-82
2021/12/10 14:55:00;;;;;;;11.90;7.75;;;;;;;3.61;100.00;99554.50;10544371;28;20036;-82
2021/12/10 15:00:01;;;;;;;10.93;7.68;;;;;;;3.57;100.00;99564.72;10543024;28;20043;-81
2021/12/10 15:05:10;;;;;;;11.20;7.00;;;;;;;3.57;100.00;99574.63;10527936;28;20455;-82
2021/12/10 15:10:21;;;;;;;11.82;8.90;;;;;;;3.54;100.00;99583.00;10509593;28;20376;-82
2021/12/10 15:15:40;;;;;;;9.15;8.07;;;;;;;3.56;100.00;99599.72;10544289;28;20035;-81
2021/12/10 15:20:40;;;;;;;13.68;9.23;;;;;;;3.62;100.00;99607.03;10542935;28;20461;-81
2021/12/10 15:25:41;;;;;;;13.63;8.77;;;;;;;3.65;100.00;99618.19;10544054;28;20080;-81
2021/12/10 15:30:42;;;;;;;10.65;8.75;;;;;;;3.68;100.00;99615.16;10544933;28;20055;-82
2021/12/10 15:35:46;;;;;;;14.23;8.43;;;;;;;3.73;100.00;99633.31;10544243;28;20036;-80
2021/12/10 15:40:54;;;;;;;13.68;10.93;;;;;;;3.73;100.00;99646.72;10543085;28;20055;-81
2021/12/10 15:45:58;;;;;;;14.05;10.35;;;;;;;3.72;100.00;99659.28;10544199;28;20035;-81
2021/12/10 15:51:02;;;;;;;12.70;11.20;;;;;;;3.71;100.00;99670.19;10543343;28;20081;-81
2021/12/10 15:56:14;;;;;;;21.48;11.20;;;;;;;3.66;100.00;99685.94;10541890;28;20113;-81
2021/12/10 16:01:18;;;;;;;14.88;11.25;;;;;;;3.64;100.00;99682.63;10542921;28;20056;-81
2021/12/10 16:06:18;;;;;;;21.50;12.15;;;;;;;3.66;100.00;99702.00;10543842;28;20036;-81
2021/12/10 16:11:20;;;;;;;15.25;12.35;;;;;;;3.68;100.00;99716.06;10541957;28;20044;-82
2021/12/10 16:16:23;;;;;;;18.73;11.73;;;;;;;3.68;100.00;99730.25;10524845;28;20096;-79
2021/12/10 16:21:36;;;;;;;18.00;13.20;;;;;;;3.68;100.00;99734.78;10559465;28;20032;-80
2021/12/10 16:26:38;;;;;;;18.00;11.25;;;;;;;3.67;100.00;99755.38;10541499;28;20349;-81
2021/12/10 16:31:38;;;;;;;22.02;14.23;;;;;;;3.70;100.00;99762.19;10543044;28;20044;-81
2021/12/10 16:36:40;;;;;;;19.50;14.13;;;;;;;3.75;100.00;99783.09;10540073;28;20163;-80
2021/12/10 16:41:43;;;;;;;19.70;14.07;;;;;;;3.76;100.00;99798.13;10541324;28;20036;-79
2021/12/10 16:46:47;;;;;;;20.13;15.93;;;;;;;3.77;100.00;99806.00;10542512;28;20028;-80
2021/12/10 16:51:50;;;;;;;17.70;13.40;;;;;;;3.77;100.00;99811.34;10546592;28;20032;-79
2021/12/10 16:56:57;;;;;;;23.45;15.73;;;;;;;3.78;100.00;99828.25;10563045;28;20035;-80
2021/12/10 17:02:00;;;;;;;19.95;14.55;;;;;;;3.79;100.00;99848.66;10572283;28;20032;-79
2021/12/10 17:07:14;;;;;;;19.08;15.18;;;;;;;3.76;100.00;99851.69;10551598;28;20056;-80
2021/12/10 17:12:18;;;;;;;19.55;15.13;;;;;;;3.72;100.00;99873.47;10542717;28;20032;-80
2021/12/10 17:17:21;;;;;;;23.38;15.80;;;;;;;3.72;100.00;99875.31;10540025;28;20028;-79
2021/12/10 17:22:28;;;;;;;30.23;17.30;;;;;;;3.71;100.00;99895.91;10556240;28;20109;-80
2021/12/10 17:27:29;;;;;;;22.65;16.35;;;;;;;3.71;100.00;99900.44;10539730;28;20036;-79
2021/12/10 17:32:30;;;;;;;29.88;17.17;;;;;;;3.76;100.00;99927.50;10540021;28;20378;-80
2021/12/10 17:37:31;;;;;;;23.45;17.40;;;;;;;3.72;100.00;99931.53;10540843;28;20040;-80
2021/12/10 17:42:32;;;;;;;29.90;18.08;;;;;;;3.72;100.00;99945.75;10539193;28;20459;-80
2021/12/10 17:47:36;;;;;;;28.25;17.27;;;;;;;3.71;100.00;99953.97;10541699;28;20036;-80
2021/12/10 17:52:38;;;;;;;26.42;19.10;;;;;;;3.73;100.00;99959.97;10530442;28;20036;-79
2021/12/10 17:57:48;;;;;;;26.75;17.65;;;;;;;3.74;100.00;99967.00;10548410;28;20028;-80
2021/12/10 18:02:50;;;;;;;28.88;22.60;;;;;;;3.74;100.00;99977.72;10547379;28;20024;-80
2021/12/10 18:07:51;;;;;;;24.05;18.73;;;;;;;3.73;100.00;99992.09;10529371;28;20097;-79
2021/12/10 18:12:54;;;;;;;32.10;20.02;;;;;;;3.71;100.00;99997.66;10529073;28;20040;-80
2021/12/10 18:18:01;;;;;;;32.67;23.00;;;;;;;3.70;100.00;100008.53;10561379;28;20092;-78
2021/12/10 18:23:06;;;;;;;26.60;20.23;;;;;;;3.70;100.00;100013.88;10546380;28;20460;-79
2021/12/10 18:28:06;;;;;;;31.30;20.58;;;;;;;3.72;100.00;100028.75;10546173;28;20373;-79
2021/12/10 18:33:10;;;;;;;31.00;20.92;;;;;;;3.67;100.00;100022.25;10544839;28;20055;-79
2021/12/10 18:38:11;;;;;;;31.45;20.38;;;;;;;3.66;100.00;100039.34;10544215;28;20036;-79
2021/12/10 18:43:22;;;;;;;32.88;21.95;;;;;;;3.62;100.00;100041.53;10544322;28;20344;-79
2021/12/10 18:48:24;;;;;;;28.77;22.63;;;;;;;3.58;100.00;100036.72;10545409;28;20111;-77
2021/12/10 18:53:27;;;;;;;30.42;20.77;;;;;;;3.48;100.00;100048.44;10544865;28;20032;-79
2021/12/10 18:58:30;;;;;;;31.10;23.00;;;;;;;3.36;100.00;100060.53;10544085;28;20093;-79
2021/12/10 19:03:33;;;;;;;38.22;22.77;;;;;;;3.25;99.76;100074.25;10545545;28;20051;-79
2021/12/10 19:08:43;;;;;;;32.08;22.73;;;;;;;3.22;99.84;100071.91;10543687;28;20048;-78
2021/12/10 19:13:50;;;;;;;38.97;24.73;;;;;;;3.22;99.99;100093.31;10560458;28;20032;-78
2021/12/10 19:18:57;;;;;;;36.03;23.52;;;;;;;3.28;100.00;100110.53;10560913;28;20032;-77
2021/12/10 19:24:06;;;;;;;34.75;25.65;;;;;;;3.34;100.00;100109.88;10546759;28;20035;-79
2021/12/10 19:29:12;;;;;;;33.50;24.55;;;;;;;3.40;100.00;100126.06;10544381;28;20024;-79
2021/12/10 19:34:21;;;;;;;30.47;22.90;;;;;;;3.45;100.00;100137.13;10541942;28;20102;-79
2021/12/10 19:39:25;;;;;;;46.65;27.83;;;;;;;3.46;100.00;100149.47;10543725;28;20260;-81
2021/12/10 19:44:27;;;;;;;35.38;24.95;;;;;;;3.47;100.00;100155.66;10542488;28;20467;-80
2021/12/10 19:49:31;;;;;;;37.17;28.52;;;;;;;3.42;100.00;100164.22;10542656;28;20464;-80
2021/12/10 19:54:33;;;;;;;45.25;29.08;;;;;;;3.42;100.00;100169.56;10542532;28;20028;-81
2021/12/10 19:59:55;;;;;;;44.20;27.50;;;;;;;3.46;100.00;100181.59;10558733;28;20028;-80
2021/12/10 20:05:11;;;;;;;45.70;27.08;;;;;;;3.54;100.00;100191.44;10541702;28;20035;-80
2021/12/10 20:10:15;;;;;;;40.28;28.27;;;;;;;3.63;100.00;100213.69;10544756;28;20048;-80
2021/12/10 20:15:29;;;;;;;39.50;26.52;;;;;;;3.60;100.00;100214.03;10542462;28;20352;-80
2021/12/10 20:20:48;;;;;;;37.50;26.50;;;;;;;3.60;100.00;100222.06;10540580;28;20194;-81
2021/12/10 20:25:51;;;;;;;43.97;29.92;;;;;;;3.61;100.00;100240.66;10540327;28;20024;-80
2021/12/10 20:31:01;;;;;;;41.92;27.75;;;;;;;3.65;100.00;100244.66;10541142;28;20535;-80
2021/12/10 20:36:26;;;;;;;45.83;29.05;;;;;;;3.66;100.00;100254.38;10543034;28;20115;-80
2021/12/10 20:41:34;;;;;;;42.05;28.67;;;;;;;3.70;100.00;100276.28;10541371;28;20032;-79
2021/12/10 20:46:38;;;;;;;52.47;32.05;;;;;;;3.73;100.00;100292.00;10542310;28;20020;-79
2021/12/10 20:51:45;;;;;;;53.90;30.85;;;;;;;3.75;100.00;100292.69;10540741;28;20048;-80
2021/12/10 20:56:57;;;;;;;43.63;28.77;;;;;;;3.80;100.00;100302.88;10539683;28;20451;-80
2021/12/10 21:02:12;;;;;;;43.38;28.23;;;;;;;3.83;100.00;100319.47;10540360;28;20118;-80
2021/12/10 21:07:18;;;;;;;50.47;30.23;;;;;;;3.89;100.00;100342.91;10540794;28;20140;-81
2021/12/10 21:12:25;;;;;;;48.42;34.08;;;;;;;3.95;100.00;100346.75;10539962;28;20471;-80
2021/12/10 21:17:28;;;;;;;44.65;30.63;;;;;;;4.01;100.00;100356.78;10540521;28;20032;-81
2021/12/10 21:22:31;;;;;;;52.47;31.23;;;;;;;4.03;100.00;100351.28;10543676;28;20073;-81
2021/12/10 21:27:37;;;;;;;45.95;29.75;;;;;;;4.02;100.00;100355.81;10548536;28;20028;-80
2021/12/10 21:32:41;;;;;;;44.43;28.37;;;;;;;4.03;100.00;100367.34;10555970;28;20088;-78
2021/12/10 21:37:57;;;;;;;40.47;28.75;;;;;;;4.02;100.00;100371.88;10549726;28;20468;-79
2021/12/10 21:42:59;;;;;;;43.63;28.65;;;;;;;4.01;100.00;100378.22;10548005;28;20032;-81
2021/12/10 21:47:59;;;;;;;39.85;27.73;;;;;;;4.00;100.00;100387.28;10548272;28;20028;-81
2021/12/10 21:53:00;;;;;;;40.95;27.63;;;;;;;3.95;100.00;100386.91;10546698;28;20036;-81
2021/12/10 21:58:01;;;;;;;54.05;29.20;;;;;;;3.85;100.00;100392.44;10546945;28;20043;-78
2021/12/10 22:03:04;;;;;;;37.88;27.98;;;;;;;3.81;100.00;100409.03;10545519;28;20036;-78
2021/12/10 22:08:16;;;;;;;49.45;29.63;;;;;;;3.87;100.00;100421.75;10546780;28;20132;-78
2021/12/10 22:13:22;;;;;;;51.80;31.70;;;;;;;3.94;100.00;100426.28;10546385;28;20357;-79
2021/12/10 22:18:25;;;;;;;49.60;30.83;;;;;;;4.02;100.00;100430.81;10546200;28;20028;-79
2021/12/10 22:23:26;;;;;;;53.22;32.13;;;;;;;4.06;100.00;100440.19;10562506;28;20115;-78
2021/12/10 22:28:42;;;;;;;42.50;30.23;;;;;;;4.09;100.00;100457.78;10546110;28;20032;-79
2021/12/10 22:33:42;;;;;;;45.03;31.17;;;;;;;4.11;100.00;100471.84;10545831;28;20031;-79
2021/12/10 22:38:56;;;;;;;47.30;30.90;;;;;;;4.15;100.00;100470.50;10545827;28;20379;-79
2021/12/10 22:43:58;;;;;;;42.58;30.55;;;;;;;4.19;100.00;100471.84;10546860;28;20103;-77
2021/12/10 22:49:01;;;;;;;49.15;30.60;;;;;;;4.13;100.00;100476.03;10544555;28;20487;-79
2021/12/10 22:54:05;;;;;;;35.63;24.50;;;;;;;4.11;100.00;100483.38;10545474;28;20467;-79
2021/12/10 22:59:10;;;;;;;39.80;25.73;;;;;;;4.01;100.00;100493.41;10543573;28;20051;-79
2021/12/10 23:04:16;;;;;;;42.33;26.10;;;;;;;3.98;100.00;100504.47;10544912;28;20060;-80
2021/12/10 23:14:21;;;;;;;42.08;27.58;;;;;;;4.11;100.00;100523.56;10545083;28;20454;-79
2021/12/10 23:19:37;;;;;;;48.05;26.30;;;;;;;4.14;100.00;100525.09;10544212;28;20039;-79
2021/12/10 23:24:39;;;;;;;32.10;23.40;;;;;;;4.14;100.00;100535.81;10543180;28;20031;-78
2021/12/10 23:30:05;;;;;;;33.50;21.77;;;;;;;4.15;100.00;100551.75;10541692;28;20036;-77
2021/12/10 23:35:22;;;;;;;29.85;22.58;;;;;;;4.19;100.00;100560.28;10538219;28;20119;-79
2021/12/10 23:40:30;;;;;;;39.85;23.85;;;;;;;4.19;100.00;100573.69;10542553;28;20081;-79
2021/12/10 23:45:36;;;;;;;43.17;24.67;;;;;;;4.18;100.00;100580.91;10541974;28;20028;-79
2021/12/10 23:50:46;;;;;;;40.00;23.52;;;;;;;4.11;100.00;100587.06;10532133;28;20056;-79